Time;durP1;ratioP1;P1;durP2;ratioP2;P2;SDS_P1;SDS_P2;PMS_P1;PMS_P2;Temp;Humidity;BMP_temperature;BMP_pressure;BME280_temperature;BME280_humidity;BME280_pressure;Samples;Min_cycle;Max_cycle;Signal;HPM_P1;HPM_P2
2022/08/15 00:01:35;;;;;;;0.98;0.80;;;18.90;99.90;;;;;;4941630;29;20047;-76
2022/08/15 00:04:01;;;;;;;1.50;0.95;;;18.80;99.90;;;;;;4940913;29;20048;-75
2022/08/15 00:06:31;;;;;;;0.80;0.68;;;18.80;99.90;;;;;;4941564;29;20103;-75
2022/08/15 00:08:58;;;;;;;2.72;1.08;;;18.70;99.90;;;;;;4941392;29;20079;-76
2022/08/15 00:11:31;;;;;;;0.95;0.63;;;18.60;99.90;;;;;;4941659;29;20139;-75
2022/08/15 00:14:15;;;;;;;0.47;0.38;;;18.50;99.90;;;;;;4941447;29;20060;-75
2022/08/15 00:16:43;;;;;;;0.75;0.70;;;18.50;99.90;;;;;;4941355;29;20094;-75
2022/08/15 00:19:15;;;;;;;2.60;0.73;;;18.50;99.90;;;;;;4941262;29;20051;-75
2022/08/15 00:21:47;;;;;;;0.32;0.32;;;18.50;99.90;;;;;;4941145;29;20055;-75
2022/08/15 00:24:16;;;;;;;0.15;0.15;;;18.50;99.90;;;;;;4940808;29;20048;-75
2022/08/15 00:26:44;;;;;;;0.85;0.50;;;18.50;99.90;;;;;;4939732;29;20052;-75
2022/08/15 00:29:13;;;;;;;3.22;1.35;;;18.70;99.90;;;;;;4940936;29;20043;-76
2022/08/15 00:31:39;;;;;;;0.95;0.68;;;18.70;99.90;;;;;;4940631;29;20143;-75
2022/08/15 00:34:05;;;;;;;1.23;0.82;;;18.70;99.90;;;;;;4940433;29;20095;-74
2022/08/15 00:36:30;;;;;;;0.47;0.47;;;18.80;99.90;;;;;;4940730;29;20395;-74
2022/08/15 00:38:58;;;;;;;0.50;0.50;;;18.70;99.90;;;;;;4949522;28;20462;-74
2022/08/15 00:41:39;;;;;;;1.90;1.50;;;18.80;99.90;;;;;;4939956;29;20142;-74
2022/08/15 00:44:13;;;;;;;1.50;1.30;;;18.70;99.90;;;;;;4940314;29;20039;-74
2022/08/15 00:46:46;;;;;;;3.00;1.65;;;18.60;99.90;;;;;;4921579;29;20099;-74
2022/08/15 00:49:13;;;;;;;0.57;0.57;;;18.50;99.90;;;;;;4921908;29;20056;-74
2022/08/15 00:52:14;;;;;;;1.67;1.08;;;18.50;99.90;;;;;;4924042;29;20048;-75
2022/08/15 00:54:43;;;;;;;3.15;1.90;;;18.40;99.90;;;;;;4940654;29;20106;-74
2022/08/15 00:57:16;;;;;;;1.95;1.52;;;18.40;99.90;;;;;;4940112;29;20502;-74
2022/08/15 00:59:46;;;;;;;2.55;2.00;;;18.40;99.90;;;;;;4941196;29;20047;-74
2022/08/15 01:02:17;;;;;;;2.10;1.40;;;18.40;99.90;;;;;;4940636;29;20047;-75
2022/08/15 01:04:43;;;;;;;2.00;1.00;;;18.40;99.90;;;;;;4940961;29;20048;-74
2022/08/15 01:07:09;;;;;;;1.33;1.23;;;18.80;99.90;;;;;;4939322;29;20036;-74
2022/08/15 01:09:36;;;;;;;1.55;1.20;;;18.40;99.90;;;;;;4941060;29;20044;-74
2022/08/15 01:12:13;;;;;;;2.15;1.30;;;18.40;99.90;;;;;;4940548;29;20502;-74
2022/08/15 01:14:43;;;;;;;0.73;0.73;;;18.30;99.90;;;;;;4939486;29;20091;-75
2022/08/15 01:17:09;;;;;;;4.43;1.88;;;18.40;99.90;;;;;;4939680;29;20083;-74
2022/08/15 01:19:49;;;;;;;3.40;1.80;;;18.30;99.90;;;;;;4940698;29;20570;-74
2022/08/15 01:22:53;;;;;;;1.85;1.48;;;18.40;99.90;;;;;;4940562;29;20123;-75
2022/08/15 01:25:40;;;;;;;5.22;1.55;;;18.40;99.90;;;;;;4940504;29;20123;-75
2022/08/15 01:28:39;;;;;;;1.05;0.98;;;18.40;99.90;;;;;;4940703;29;20050;-75
2022/08/15 01:31:12;;;;;;;0.77;0.77;;;18.40;99.90;;;;;;4918042;29;20092;-75
2022/08/15 01:33:54;;;;;;;3.20;1.30;;;18.30;99.90;;;;;;4920433;29;20082;-75
2022/08/15 01:36:22;;;;;;;3.70;1.80;;;18.30;99.90;;;;;;4934383;29;20052;-75
2022/08/15 01:39:07;;;;;;;1.67;1.10;;;18.30;99.90;;;;;;4939851;29;20051;-75
2022/08/15 01:41:52;;;;;;;1.38;0.65;;;18.40;99.90;;;;;;4938443;29;20051;-75
2022/08/15 01:44:27;;;;;;;4.43;1.77;;;18.40;99.90;;;;;;4939275;29;20054;-75
2022/08/15 01:47:16;;;;;;;1.55;1.08;;;18.50;99.90;;;;;;4938909;29;20523;-75
2022/08/15 01:50:09;;;;;;;2.63;0.77;;;18.60;99.90;;;;;;4943314;29;20442;-75
2022/08/15 01:52:40;;;;;;;1.10;0.85;;;18.70;99.90;;;;;;4935608;29;20139;-75
2022/08/15 01:55:26;;;;;;;1.23;0.93;;;18.70;99.90;;;;;;4943332;29;20087;-74
2022/08/15 01:57:52;;;;;;;5.18;1.85;;;18.70;99.90;;;;;;4943473;29;20044;-75
2022/08/15 02:00:20;;;;;;;2.75;1.50;;;18.80;99.90;;;;;;4941498;29;20496;-75
2022/08/15 02:02:46;;;;;;;7.13;2.20;;;18.90;99.90;;;;;;4942696;29;20154;-74
2022/08/15 02:05:12;;;;;;;1.88;1.48;;;18.90;99.90;;;;;;4942873;29;20040;-75
2022/08/15 02:07:38;;;;;;;1.60;1.35;;;19.00;99.90;;;;;;4943037;29;20051;-75
2022/08/15 02:10:05;;;;;;;1.25;0.93;;;19.00;99.90;;;;;;4943153;29;20035;-74
2022/08/15 02:12:35;;;;;;;1.38;0.77;;;19.00;99.90;;;;;;4943172;29;20054;-74
2022/08/15 02:15:06;;;;;;;0.95;0.82;;;18.90;99.90;;;;;;4943055;29;20407;-75
2022/08/15 02:17:32;;;;;;;1.23;1.13;;;19.00;99.90;;;;;;4942648;29;20558;-74
2022/08/15 02:19:59;;;;;;;2.78;1.80;;;19.10;99.90;;;;;;4943089;29;20047;-74
2022/08/15 02:22:25;;;;;;;1.05;0.95;;;19.10;99.90;;;;;;4942536;29;20055;-75
2022/08/15 02:24:55;;;;;;;6.45;1.90;;;19.10;99.90;;;;;;4942605;29;20060;-74
2022/08/15 02:27:21;;;;;;;1.27;1.10;;;19.00;99.90;;;;;;4942870;29;20059;-74
2022/08/15 02:29:47;;;;;;;1.08;1.00;;;19.00;99.90;;;;;;4941552;29;20044;-75
2022/08/15 02:32:15;;;;;;;5.35;2.05;;;19.00;99.90;;;;;;4942779;29;20072;-75
2022/08/15 02:34:44;;;;;;;1.13;0.95;;;19.00;99.90;;;;;;4941325;29;20051;-75
2022/08/15 02:37:11;;;;;;;1.52;1.00;;;19.10;99.90;;;;;;4942257;29;20082;-74
2022/08/15 02:39:39;;;;;;;0.93;0.85;;;19.00;99.90;;;;;;4942876;29;20125;-75
2022/08/15 02:42:05;;;;;;;1.98;1.80;;;19.20;99.90;;;;;;4941959;29;20094;-75
2022/08/15 02:44:31;;;;;;;2.40;1.73;;;19.20;99.90;;;;;;4942606;29;20126;-75
2022/08/15 02:46:57;;;;;;;1.65;1.48;;;19.20;99.90;;;;;;4942348;29;20075;-75
2022/08/15 02:49:24;;;;;;;1.55;1.02;;;19.30;99.90;;;;;;4942673;29;20036;-74
2022/08/15 02:51:54;;;;;;;1.98;0.63;;;19.20;99.90;;;;;;4942741;29;20128;-74
2022/08/15 02:54:22;;;;;;;1.00;0.82;;;19.20;99.90;;;;;;4943308;29;20036;-75
2022/08/15 02:56:48;;;;;;;1.60;1.30;;;19.10;99.90;;;;;;4945110;29;20044;-75
2022/08/15 02:59:14;;;;;;;1.48;0.85;;;19.30;99.90;;;;;;4943302;29;20050;-74
2022/08/15 03:01:41;;;;;;;0.93;0.80;;;19.20;99.90;;;;;;4944287;29;20111;-74
2022/08/15 03:04:10;;;;;;;2.92;1.30;;;19.20;99.90;;;;;;4947325;29;20047;-75
2022/08/15 03:06:37;;;;;;;1.75;1.50;;;19.10;99.90;;;;;;4947569;29;20054;-75
2022/08/15 03:09:06;;;;;;;2.67;1.55;;;19.10;99.90;;;;;;4946368;29;20074;-74
2022/08/15 03:11:38;;;;;;;3.70;1.40;;;19.00;99.90;;;;;;4947628;29;20068;-75
2022/08/15 03:14:09;;;;;;;1.67;1.23;;;19.00;99.90;;;;;;4946898;29;20071;-74
2022/08/15 03:16:43;;;;;;;2.95;1.40;;;18.90;99.90;;;;;;4941548;29;20043;-75
2022/08/15 03:19:12;;;;;;;2.08;0.95;;;18.80;99.90;;;;;;4937771;29;20099;-75
2022/08/15 03:21:37;;;;;;;0.80;0.80;;;18.70;99.90;;;;;;4937656;29;20090;-74
2022/08/15 03:24:04;;;;;;;0.80;0.57;;;18.70;99.90;;;;;;4937358;29;20059;-74
2022/08/15 03:26:30;;;;;;;2.35;1.77;;;18.60;99.90;;;;;;4937649;29;20047;-74
2022/08/15 03:28:56;;;;;;;1.67;1.35;;;18.50;99.90;;;;;;4937854;29;20392;-75
2022/08/15 03:31:22;;;;;;;1.70;1.45;;;18.60;99.90;;;;;;4936539;29;20515;-74
2022/08/15 03:33:48;;;;;;;1.38;1.27;;;18.60;99.90;;;;;;4936622;29;20081;-74
2022/08/15 03:36:19;;;;;;;3.40;1.77;;;18.50;99.90;;;;;;4936072;29;20044;-75
2022/08/15 03:38:46;;;;;;;1.80;1.38;;;18.50;99.90;;;;;;4936356;29;20126;-74
2022/08/15 03:41:13;;;;;;;2.47;1.50;;;18.60;99.90;;;;;;4936052;29;20487;-75
2022/08/15 03:43:40;;;;;;;3.22;2.13;;;18.20;99.90;;;;;;4936104;29;20082;-75
2022/08/15 03:46:12;;;;;;;2.00;1.67;;;18.20;99.90;;;;;;4935947;29;20051;-75
2022/08/15 03:48:42;;;;;;;1.63;1.52;;;18.00;99.90;;;;;;4936259;29;20115;-74
2022/08/15 03:51:09;;;;;;;1.60;1.38;;;18.00;99.90;;;;;;4936137;29;20103;-75
2022/08/15 03:53:43;;;;;;;0.60;0.47;;;17.80;99.90;;;;;;4936007;29;20040;-74
2022/08/15 03:56:13;;;;;;;1.95;0.57;;;17.70;99.90;;;;;;4935825;29;20044;-74
2022/08/15 03:58:39;;;;;;;2.45;0.90;;;17.60;99.90;;;;;;4936259;29;20051;-74
2022/08/15 04:01:13;;;;;;;3.45;1.50;;;17.60;99.90;;;;;;4935857;29;20403;-74
2022/08/15 04:03:39;;;;;;;1.45;1.05;;;17.60;99.90;;;;;;4935879;29;20036;-74
2022/08/15 04:06:10;;;;;;;2.45;1.05;;;17.50;99.90;;;;;;4935586;29;20118;-74
2022/08/15 04:08:37;;;;;;;1.13;1.02;;;17.50;99.90;;;;;;4935961;29;20491;-75
2022/08/15 04:11:05;;;;;;;1.98;1.00;;;17.50;99.90;;;;;;4937279;29;20059;-74
2022/08/15 04:13:32;;;;;;;3.05;1.17;;;17.50;99.90;;;;;;4935864;29;20103;-75
2022/08/15 04:16:01;;;;;;;2.80;1.77;;;17.50;99.90;;;;;;4935528;29;20058;-75
2022/08/15 04:18:29;;;;;;;1.65;1.08;;;17.50;99.90;;;;;;4935793;29;20043;-74
2022/08/15 04:20:56;;;;;;;0.95;0.70;;;17.60;99.90;;;;;;4935728;29;20044;-75
2022/08/15 04:23:23;;;;;;;0.60;0.60;;;17.60;99.90;;;;;;4935211;29;20059;-74
2022/08/15 04:25:49;;;;;;;2.50;1.33;;;17.50;99.90;;;;;;4935713;29;20052;-74
2022/08/15 04:28:20;;;;;;;1.95;1.48;;;17.70;99.90;;;;;;4934026;29;20498;-75
2022/08/15 04:30:48;;;;;;;2.30;1.83;;;17.70;99.90;;;;;;4938077;28;20048;-74
2022/08/15 04:33:16;;;;;;;2.22;1.85;;;17.70;99.90;;;;;;4930195;29;20398;-74
2022/08/15 04:35:50;;;;;;;1.52;1.33;;;17.60;99.90;;;;;;4941860;28;20054;-74
2022/08/15 04:38:17;;;;;;;1.90;1.70;;;17.60;99.90;;;;;;4935725;29;20052;-74
2022/08/15 04:40:44;;;;;;;1.55;1.35;;;17.50;99.90;;;;;;4949849;28;20111;-74
2022/08/15 04:43:10;;;;;;;6.65;2.55;;;17.50;99.90;;;;;;4935398;29;20047;-74
2022/08/15 04:45:38;;;;;;;3.50;1.92;;;17.60;99.90;;;;;;4935072;29;20063;-74
2022/08/15 04:48:04;;;;;;;2.22;1.95;;;17.80;99.90;;;;;;4935188;29;20079;-74
2022/08/15 04:50:36;;;;;;;1.73;1.52;;;17.70;99.90;;;;;;4935102;29;20147;-75
2022/08/15 04:53:03;;;;;;;2.22;1.52;;;17.70;99.90;;;;;;4934718;29;20504;-75
2022/08/15 04:55:29;;;;;;;1.70;1.27;;;17.70;99.90;;;;;;4931797;29;20048;-75
2022/08/15 04:57:56;;;;;;;3.05;1.20;;;17.70;99.90;;;;;;4932111;29;20502;-75
2022/08/15 05:00:25;;;;;;;0.93;0.93;;;17.70;99.90;;;;;;4931822;29;20114;-75
2022/08/15 05:03:11;;;;;;;3.00;2.05;;;17.70;99.90;;;;;;4935096;29;20481;-75
2022/08/15 05:05:46;;;;;;;1.73;1.52;;;17.80;99.90;;;;;;4931863;29;20064;-75
2022/08/15 05:08:12;;;;;;;3.10;1.30;;;17.80;99.90;;;;;;4932184;29;20103;-75
2022/08/15 05:10:39;;;;;;;3.05;2.08;;;18.00;99.90;;;;;;4931893;29;20348;-74
2022/08/15 05:13:18;;;;;;;2.40;1.48;;;18.00;99.90;;;;;;4932275;29;20068;-75
2022/08/15 05:15:45;;;;;;;1.15;1.02;;;18.10;99.90;;;;;;4931758;29;20048;-75
2022/08/15 05:18:11;;;;;;;3.10;2.00;;;18.20;99.90;;;;;;4931990;29;20099;-75
2022/08/15 05:20:37;;;;;;;1.77;1.17;;;18.20;99.90;;;;;;4931884;29;20047;-72
2022/08/15 05:23:09;;;;;;;4.90;2.15;;;18.40;99.90;;;;;;4933788;29;20035;-74
2022/08/15 05:25:39;;;;;;;6.50;1.40;;;18.50;99.90;;;;;;4938482;29;20098;-74
2022/08/15 05:28:05;;;;;;;3.20;1.70;;;18.60;99.90;;;;;;4937127;29;20040;-74
2022/08/15 05:30:32;;;;;;;4.13;1.50;;;18.70;99.90;;;;;;4938825;29;20122;-74
2022/08/15 05:33:22;;;;;;;3.33;2.08;;;18.80;99.90;;;;;;4938402;29;20040;-74
2022/08/15 05:35:54;;;;;;;2.28;2.08;;;19.00;99.90;;;;;;4931410;29;20059;-74
2022/08/15 05:38:49;;;;;;;5.85;1.85;;;19.20;99.90;;;;;;4938363;29;20079;-75
2022/08/15 05:41:17;;;;;;;1.15;1.05;;;19.30;99.90;;;;;;4938302;29;20083;-74
2022/08/15 05:44:16;;;;;;;2.70;2.03;;;19.50;99.90;;;;;;4938153;29;20099;-75
2022/08/15 05:47:12;;;;;;;3.42;2.03;;;19.60;99.90;;;;;;4938136;29;20593;-74
2022/08/15 05:49:52;;;;;;;3.42;1.83;;;19.70;99.90;;;;;;4938211;29;20062;-74
2022/08/15 05:52:39;;;;;;;2.17;1.98;;;19.80;99.90;;;;;;4938114;29;20151;-74
2022/08/15 05:55:14;;;;;;;1.25;1.13;;;20.00;99.90;;;;;;4937883;29;20044;-74
2022/08/15 05:58:18;;;;;;;6.57;2.50;;;20.00;99.90;;;;;;4938126;29;20042;-75
2022/08/15 06:00:50;;;;;;;1.98;1.42;;;20.10;99.90;;;;;;4937996;29;20078;-75
2022/08/15 06:03:24;;;;;;;3.13;1.73;;;20.20;99.90;;;;;;4937677;29;20115;-75
2022/08/15 06:05:54;;;;;;;2.63;1.70;;;20.30;99.90;;;;;;4938082;29;20075;-75
2022/08/15 06:08:24;;;;;;;8.02;2.38;;;20.10;99.90;;;;;;4937887;29;20047;-74
2022/08/15 06:11:02;;;;;;;1.90;1.63;;;20.30;99.90;;;;;;4952486;28;20043;-74
2022/08/15 06:13:40;;;;;;;5.25;1.73;;;20.30;99.90;;;;;;4937756;29;20047;-75
2022/08/15 06:16:17;;;;;;;3.47;1.40;;;20.50;99.90;;;;;;4937751;29;20493;-74
2022/08/15 06:18:46;;;;;;;3.67;2.38;;;20.60;99.90;;;;;;4952293;28;20406;-75
2022/08/15 06:21:24;;;;;;;3.15;2.22;;;20.70;99.90;;;;;;4937884;29;20044;-75
2022/08/15 06:24:05;;;;;;;0.88;0.75;;;20.70;99.90;;;;;;4937754;29;20059;-75
2022/08/15 06:27:02;;;;;;;1.95;1.23;;;20.90;99.90;;;;;;4937838;29;20059;-75
2022/08/15 06:29:48;;;;;;;1.48;1.25;;;21.00;99.90;;;;;;4937530;29;20451;-75
2022/08/15 06:32:21;;;;;;;;;;;21.10;99.90;;;;;;4952586;29;20055;-75
2022/08/15 06:35:13;;;;;;;4.53;1.73;;;21.20;99.90;;;;;;4937701;29;20289;-74
2022/08/15 06:38:14;;;;;;;3.65;1.67;;;21.50;99.90;;;;;;4934428;29;20059;-75
2022/08/15 06:40:48;;;;;;;2.55;2.28;;;21.70;99.90;;;;;;4927081;29;20047;-75
2022/08/15 06:43:14;;;;;;;1.92;1.33;;;21.90;99.90;;;;;;4935485;29;20047;-76
2022/08/15 06:45:44;;;;;;;1.65;1.48;;;22.00;99.90;;;;;;4933921;29;20380;-75
2022/08/15 06:48:13;;;;;;;10.27;2.80;;;22.00;99.90;;;;;;4934318;29;20048;-75
2022/08/15 06:50:48;;;;;;;2.15;1.38;;;22.10;99.90;;;;;;4934655;29;20044;-75
2022/08/15 06:53:26;;;;;;;1.42;1.02;;;22.20;99.90;;;;;;4933853;29;20055;-76
2022/08/15 06:55:59;;;;;;;2.03;1.33;;;22.30;99.90;;;;;;4934519;29;20059;-75
2022/08/15 06:58:52;;;;;;;1.90;1.42;;;22.30;99.90;;;;;;4934044;29;20582;-76
2022/08/15 07:01:47;;;;;;;2.65;1.65;;;22.70;99.90;;;;;;4933946;29;20432;-75
2022/08/15 07:04:32;;;;;;;2.55;2.00;;;23.00;99.90;;;;;;4934387;29;20055;-76
2022/08/15 07:07:22;;;;;;;1.25;0.90;;;22.80;99.90;;;;;;4934061;29;20502;-75
2022/08/15 07:09:52;;;;;;;5.25;1.25;;;22.80;99.90;;;;;;4933838;29;20055;-75
2022/08/15 07:12:33;;;;;;;1.98;1.75;;;22.70;99.90;;;;;;4946478;28;20158;-75
2022/08/15 07:15:36;;;;;;;3.00;1.83;;;22.40;99.90;;;;;;4951280;28;20047;-75
2022/08/15 07:18:10;;;;;;;1.92;1.23;;;22.40;99.90;;;;;;4952538;28;20114;-75
2022/08/15 07:20:36;;;;;;;1.52;1.17;;;22.80;99.90;;;;;;4954875;28;20098;-75
2022/08/15 07:23:15;;;;;;;4.38;1.58;;;23.40;99.90;;;;;;4955051;28;20047;-75
2022/08/15 07:25:48;;;;;;;4.03;1.52;;;23.70;99.90;;;;;;4955474;28;20039;-74
2022/08/15 07:28:16;;;;;;;2.22;1.90;;;23.60;99.90;;;;;;4956021;28;20047;-75
2022/08/15 07:30:51;;;;;;;1.30;1.17;;;23.40;99.90;;;;;;4955051;28;20047;-75
2022/08/15 07:33:44;;;;;;;1.70;1.58;;;23.40;99.90;;;;;;4955564;28;20039;-75
2022/08/15 07:36:12;;;;;;;2.45;1.33;;;23.40;99.90;;;;;;4955198;28;20051;-75
2022/08/15 07:38:38;;;;;;;2.00;1.27;;;23.50;99.90;;;;;;4955329;29;20043;-75
2022/08/15 07:41:13;;;;;;;2.83;1.95;;;23.50;99.90;;;;;;4955157;28;20550;-75
2022/08/15 07:43:38;;;;;;;3.72;2.25;;;23.80;99.90;;;;;;4955413;28;20074;-75
2022/08/15 07:46:14;;;;;;;0.93;0.60;;;24.00;99.90;;;;;;4954687;28;20126;-75
2022/08/15 07:48:41;;;;;;;2.45;1.83;;;24.10;99.90;;;;;;4955425;28;20399;-75
2022/08/15 07:51:41;;;;;;;3.88;1.98;;;24.20;99.90;;;;;;4955072;28;20043;-75
2022/08/15 07:54:37;;;;;;;1.92;1.13;;;24.50;99.90;;;;;;4953158;28;20055;-75
2022/08/15 07:57:06;;;;;;;1.33;1.13;;;25.00;99.90;;;;;;4954081;28;20051;-75
2022/08/15 07:59:35;;;;;;;1.67;1.13;;;25.40;99.90;;;;;;4955047;28;20525;-75
2022/08/15 08:02:07;;;;;;;0.82;0.70;;;25.90;99.90;;;;;;4969759;28;20406;-75
2022/08/15 08:04:34;;;;;;;1.85;1.33;;;26.40;99.90;;;;;;4954842;28;20051;-75
2022/08/15 08:07:46;;;;;;;1.95;1.15;;;26.80;99.90;;;;;;4955018;28;20398;-75
2022/08/15 08:10:20;;;;;;;0.60;0.47;;;27.20;92.70;;;;;;4952560;28;20716;-75
2022/08/15 08:13:04;;;;;;;0.50;0.50;;;28.00;78.80;;;;;;4955128;28;20082;-75
2022/08/15 08:15:44;;;;;;;0.77;0.73;;;27.50;77.80;;;;;;4954811;28;20058;-75
2022/08/15 08:18:38;;;;;;;8.18;1.20;;;27.70;67.70;;;;;;4954806;28;20043;-76
2022/08/15 08:21:11;;;;;;;1.95;1.17;;;27.50;66.70;;;;;;4954763;28;20471;-76
2022/08/15 08:23:47;;;;;;;17.98;1.35;;;28.20;58.00;;;;;;4969157;28;20146;-75
2022/08/15 08:26:18;;;;;;;1.25;0.88;;;29.30;48.90;;;;;;4954783;28;20163;-76
2022/08/15 08:29:27;;;;;;;0.28;0.25;;;29.00;33.20;;;;;;4954726;28;20053;-75
2022/08/15 08:32:17;;;;;;;4.28;1.90;;;28.00;32.10;;;;;;4967124;28;20058;-75
2022/08/15 08:35:07;;;;;;;2.15;1.15;;;28.10;40.60;;;;;;4954455;28;20043;-75
2022/08/15 08:37:45;;;;;;;1.05;0.95;;;28.00;39.00;;;;;;4954447;28;20058;-76
2022/08/15 08:43:26;;;;;;;5.63;1.60;;;27.40;42.20;;;;;;4954392;28;20055;-76
2022/08/15 08:46:00;;;;;;;2.25;0.95;;;27.60;47.80;;;;;;4954282;28;20126;-75
2022/08/15 08:48:42;;;;;;;1.20;0.95;;;27.20;39.20;;;;;;4954261;28;20047;-75
2022/08/15 08:51:43;;;;;;;0.60;0.60;;;27.50;37.60;;;;;;4954478;28;20047;-75
2022/08/15 08:54:26;;;;;;;1.13;0.80;;;28.80;33.30;;;;;;4945567;28;20422;-75
2022/08/15 08:56:57;;;;;;;1.70;0.95;;;29.20;18.50;;;;;;4955727;28;20059;-75
2022/08/15 08:59:39;;;;;;;0.73;0.50;;;29.60;14.10;;;;;;4958421;28;20174;-75
2022/08/15 09:02:18;;;;;;;0.95;0.68;;;29.70;13.80;;;;;;4958223;28;20106;-75
2022/08/15 09:04:49;;;;;;;0.63;0.45;;;29.70;13.00;;;;;;4958818;28;20375;-75
2022/08/15 09:07:24;;;;;;;1.23;0.50;;;29.60;8.80;;;;;;4955414;28;20486;-75
2022/08/15 09:09:51;;;;;;;6.68;1.27;;;29.50;10.80;;;;;;4948438;28;20051;-75
2022/08/15 09:15:22;;;;;;;1.00;0.85;;;29.00;11.20;;;;;;4943488;28;20047;-75
2022/08/15 09:17:54;;;;;;;1.13;0.88;;;28.50;14.60;;;;;;4952266;28;20517;-75
2022/08/15 09:20:27;;;;;;;1.33;0.70;;;28.10;19.10;;;;;;4972289;28;20098;-75
2022/08/15 09:22:55;;;;;;;4.28;1.23;;;29.10;16.00;;;;;;4957590;28;20124;-75
2022/08/15 09:25:23;;;;;;;3.95;1.13;;;29.80;13.70;;;;;;4957675;28;20438;-75
2022/08/15 09:27:48;;;;;;;1.17;0.88;;;30.50;6.60;;;;;;4957827;28;20054;-76
2022/08/15 09:30:14;;;;;;;0.38;0.35;;;30.40;6.80;;;;;;4957588;28;20044;-76
2022/08/15 09:33:05;;;;;;;0.90;0.77;;;29.50;5.30;;;;;;4957664;28;20412;-75
2022/08/15 09:36:19;;;;;;;0.35;0.35;;;30.00;4.70;;;;;;4957345;28;20126;-75
2022/08/15 09:38:55;;;;;;;0.50;0.47;;;29.80;5.70;;;;;;4923560;28;20060;-75
2022/08/15 09:41:42;;;;;;;3.30;1.25;;;30.40;4.70;;;;;;4938408;29;20100;-76
2022/08/15 09:44:41;;;;;;;0.25;0.25;;;30.80;1.80;;;;;;4938248;29;20054;-76
2022/08/15 09:47:13;;;;;;;0.47;0.47;;;31.70;1.00;;;;;;4938347;29;20043;-75
2022/08/15 09:50:10;;;;;;;1.17;0.82;;;32.50;1.00;;;;;;4937758;29;20042;-75
2022/08/15 09:52:38;;;;;;;2.65;1.20;;;33.20;1.00;;;;;;4938103;29;20052;-76
2022/08/15 09:55:28;;;;;;;0.80;0.65;;;32.80;1.00;;;;;;4938161;29;20043;-76
2022/08/15 09:57:56;;;;;;;1.27;0.75;;;33.00;1.00;;;;;;4938112;29;20044;-75
2022/08/15 10:00:27;;;;;;;2.10;1.35;;;32.50;1.00;;;;;;4937994;29;20047;-76
2022/08/15 10:02:59;;;;;;;1.27;0.65;;;32.40;1.00;;;;;;4937754;29;20044;-75
2022/08/15 10:05:41;;;;;;;0.77;0.60;;;32.40;1.00;;;;;;4937719;29;20126;-76
2022/08/15 10:08:07;;;;;;;0.65;0.57;;;32.70;1.00;;;;;;4951717;28;20127;-76
2022/08/15 10:10:35;;;;;;;1.13;0.68;;;33.30;1.00;;;;;;4937867;29;20126;-75
2022/08/15 10:13:07;;;;;;;0.57;0.57;;;33.50;1.00;;;;;;4938034;29;20055;-75
2022/08/15 10:15:41;;;;;;;0.95;0.85;;;33.40;1.00;;;;;;4937830;29;20048;-75
2022/08/15 10:18:09;;;;;;;1.73;1.10;;;33.40;1.00;;;;;;4937954;29;20395;-75
2022/08/15 10:20:40;;;;;;;0.90;0.55;;;33.10;1.00;;;;;;4938169;29;20518;-75
2022/08/15 10:23:16;;;;;;;2.83;1.27;;;32.60;1.00;;;;;;4937641;29;20052;-75
2022/08/15 10:25:45;;;;;;;0.57;0.55;;;32.50;1.00;;;;;;4938366;29;20056;-75
2022/08/15 10:28:11;;;;;;;0.63;0.50;;;32.30;1.00;;;;;;4938023;29;20059;-75
2022/08/15 10:30:52;;;;;;;1.33;0.90;;;32.40;1.00;;;;;;4937728;29;20044;-75
2022/08/15 10:33:24;;;;;;;2.05;1.55;;;32.30;1.00;;;;;;4937341;29;20499;-75
2022/08/15 10:35:51;;;;;;;1.20;0.98;;;32.60;1.00;;;;;;4937334;29;20047;-75
2022/08/15 10:38:25;;;;;;;1.85;0.63;;;32.70;1.00;;;;;;4937206;29;20554;-76
2022/08/15 10:41:03;;;;;;;4.68;1.83;;;32.90;1.00;;;;;;4936122;29;20131;-75
2022/08/15 10:43:32;;;;;;;1.20;1.10;;;33.10;1.00;;;;;;4937621;29;20052;-75
2022/08/15 10:46:05;;;;;;;1.02;0.65;;;33.20;1.00;;;;;;4937383;29;20134;-75
2022/08/15 10:48:49;;;;;;;0.82;0.63;;;33.20;1.00;;;;;;4937226;29;20175;-75
2022/08/15 10:51:44;;;;;;;1.85;1.17;;;33.20;1.00;;;;;;4937959;29;20052;-75
2022/08/15 10:54:31;;;;;;;6.00;1.25;;;32.90;1.00;;;;;;4938233;29;20047;-75
2022/08/15 10:56:57;;;;;;;1.45;1.13;;;32.30;1.00;;;;;;4936113;29;20454;-75
2022/08/15 10:59:27;;;;;;;1.10;0.80;;;31.90;1.00;;;;;;4937240;29;20134;-75
2022/08/15 11:02:21;;;;;;;1.38;0.68;;;31.40;1.00;;;;;;4938661;29;20082;-75
2022/08/15 11:04:48;;;;;;;1.65;1.00;;;31.20;1.00;;;;;;4937437;29;20217;-75
2022/08/15 11:07:20;;;;;;;1.27;0.95;;;30.90;1.00;;;;;;4938417;29;20516;-75
2022/08/15 11:09:58;;;;;;;0.85;0.77;;;30.50;1.00;;;;;;4938926;29;20519;-75
2022/08/15 11:12:28;;;;;;;10.35;1.17;;;30.00;3.60;;;;;;4939914;29;20069;-75
2022/08/15 11:14:59;;;;;;;0.70;0.60;;;29.70;8.90;;;;;;4938306;29;20135;-76
2022/08/15 11:17:30;;;;;;;1.55;1.15;;;29.30;12.30;;;;;;4947345;28;20107;-75
2022/08/15 11:20:15;;;;;;;1.50;0.90;;;28.90;16.40;;;;;;4941207;29;20499;-75
2022/08/15 11:22:53;;;;;;;1.35;1.08;;;28.60;32.00;;;;;;4937633;29;20055;-75
2022/08/15 11:25:24;;;;;;;1.15;0.82;;;27.70;66.00;;;;;;4935687;29;20549;-75
2022/08/15 11:28:05;;;;;;;1.85;0.75;;;26.40;99.90;;;;;;4934321;29;20055;-76
2022/08/15 11:30:35;;;;;;;2.05;1.15;;;25.20;99.90;;;;;;4933972;29;20111;-76
2022/08/15 11:33:23;;;;;;;0.57;0.57;;;24.40;99.90;;;;;;4965177;28;20059;-77
2022/08/15 11:36:21;;;;;;;1.92;0.93;;;23.90;99.90;;;;;;4934846;28;20066;-76
2022/08/15 11:38:52;;;;;;;0.65;0.63;;;23.40;99.90;;;;;;4933763;29;20471;-79
2022/08/15 11:41:27;;;;;;;1.17;1.08;;;23.40;99.90;;;;;;4934446;29;20130;-76
2022/08/15 11:43:58;;;;;;;7.25;1.27;;;23.40;99.90;;;;;;4934681;29;20399;-75
2022/08/15 11:46:24;;;;;;;0.70;0.52;;;23.70;99.90;;;;;;4934567;29;20633;-75
2022/08/15 11:49:06;;;;;;;1.67;0.70;;;23.70;99.90;;;;;;4942296;28;20043;-75
2022/08/15 11:51:38;;;;;;;1.77;1.17;;;23.90;99.90;;;;;;4945091;28;20505;-75
2022/08/15 11:54:12;;;;;;;1.30;0.93;;;24.10;99.90;;;;;;4952963;28;20047;-75
2022/08/15 11:57:00;;;;;;;0.85;0.85;;;24.40;99.90;;;;;;4953301;28;20039;-75
2022/08/15 11:59:35;;;;;;;0.55;0.55;;;24.80;99.90;;;;;;4953062;28;20054;-75
2022/08/15 12:02:06;;;;;;;2.10;1.50;;;25.00;99.90;;;;;;4954207;28;20046;-75
2022/08/15 12:04:34;;;;;;;2.83;1.42;;;25.10;99.90;;;;;;4950939;28;20055;-75
2022/08/15 12:07:23;;;;;;;0.52;0.52;;;25.00;99.90;;;;;;4942410;28;20098;-75
2022/08/15 12:10:04;;;;;;;0.68;0.57;;;25.10;99.90;;;;;;4943643;28;20038;-75
2022/08/15 12:12:38;;;;;;;1.23;0.82;;;25.20;99.90;;;;;;4915403;29;20062;-75
2022/08/15 12:15:14;;;;;;;0.57;0.53;;;25.30;99.90;;;;;;4915274;29;20127;-76
2022/08/15 12:17:41;;;;;;;0.90;0.75;;;25.30;99.90;;;;;;4943762;28;20078;-75
2022/08/15 12:20:08;;;;;;;1.40;1.00;;;25.20;99.90;;;;;;4939816;28;20040;-75
2022/08/15 12:22:40;;;;;;;0.50;0.40;;;25.20;99.90;;;;;;4942792;28;20554;-76
2022/08/15 12:25:07;;;;;;;1.55;0.70;;;25.30;99.90;;;;;;4942215;28;20510;-76
2022/08/15 12:27:35;;;;;;;0.77;0.47;;;25.50;99.90;;;;;;4935060;28;20055;-75
2022/08/15 12:30:07;;;;;;;3.05;1.67;;;25.70;99.90;;;;;;4939012;29;20058;-76
2022/08/15 12:32:32;;;;;;;0.95;0.60;;;26.00;99.90;;;;;;4941145;28;20069;-76
2022/08/15 12:34:59;;;;;;;0.77;0.57;;;26.40;99.90;;;;;;4939543;28;20043;-76
2022/08/15 12:37:26;;;;;;;0.68;0.55;;;26.90;99.90;;;;;;4945683;28;20447;-76
2022/08/15 12:39:59;;;;;;;1.08;0.63;;;27.30;99.90;;;;;;4940308;28;20047;-76
2022/08/15 12:42:27;;;;;;;1.48;0.82;;;27.60;99.90;;;;;;4966941;28;20055;-76
2022/08/15 12:44:55;;;;;;;6.00;1.25;;;27.90;99.90;;;;;;4917169;29;20107;-76
2022/08/15 12:47:22;;;;;;;1.15;1.05;;;28.30;99.90;;;;;;4921326;29;20075;-76
2022/08/15 12:49:49;;;;;;;0.93;0.75;;;28.50;96.40;;;;;;4919016;29;20048;-76
2022/08/15 12:52:17;;;;;;;1.63;0.98;;;28.60;99.90;;;;;;4920081;29;20050;-76
2022/08/15 12:54:42;;;;;;;0.77;0.52;;;28.70;98.40;;;;;;4918619;29;20052;-75
2022/08/15 12:57:08;;;;;;;1.20;0.85;;;28.80;93.30;;;;;;4921323;29;20117;-75
2022/08/15 12:59:33;;;;;;;1.13;1.00;;;29.00;92.70;;;;;;4922761;29;20051;-75
2022/08/15 13:02:00;;;;;;;2.03;1.20;;;29.10;92.60;;;;;;4922738;29;20036;-76
2022/08/15 13:04:26;;;;;;;1.83;1.13;;;29.30;92.50;;;;;;4922440;29;20044;-76
2022/08/15 13:06:55;;;;;;;1.38;1.08;;;29.20;92.90;;;;;;4926136;29;20108;-75
2022/08/15 13:09:23;;;;;;;2.10;1.13;;;29.10;88.10;;;;;;4927124;29;20040;-76
2022/08/15 13:11:48;;;;;;;1.23;1.10;;;28.90;93.80;;;;;;4926660;29;20098;-76
2022/08/15 13:14:16;;;;;;;0.95;0.85;;;28.90;87.40;;;;;;4924599;29;20107;-75
2022/08/15 13:16:45;;;;;;;0.15;0.15;;;28.70;68.30;;;;;;4923017;29;20075;-76
2022/08/15 13:19:22;;;;;;;0.57;0.57;;;28.80;75.90;;;;;;4926479;29;20078;-76
2022/08/15 13:24:33;;;;;;;0.95;0.73;;;28.60;58.20;;;;;;4925243;29;20064;-76
2022/08/15 13:27:00;;;;;;;6.00;1.13;;;28.60;60.40;;;;;;4925027;29;20060;-76
2022/08/15 13:29:26;;;;;;;0.63;0.52;;;28.70;68.00;;;;;;4926960;29;20119;-76
2022/08/15 13:31:52;;;;;;;0.85;0.85;;;28.70;65.20;;;;;;4924600;29;20072;-76